Time;durP1;ratioP1;P1;durP2;ratioP2;P2;SDS_P1;SDS_P2;PMS_P1;PMS_P2;Temp;Humidity;BMP_temperature;BMP_pressure;BME280_temperature;BME280_humidity;BME280_pressure;Samples;Min_cycle;Max_cycle;Signal;HPM_P1;HPM_P2
2022/04/12 00:00:33;;;;;;;11.25;6.05;;;;;;;;;;5020655;28;20041;-70
2022/04/12 00:02:59;;;;;;;9.95;6.03;;;;;;;;;;5019093;28;20083;-70
2022/04/12 00:05:25;;;;;;;9.25;5.85;;;;;;;;;;5020877;28;20136;-70
2022/04/12 00:07:51;;;;;;;9.77;6.28;;;;;;;;;;5020588;28;20045;-70
2022/04/12 00:10:16;;;;;;;9.43;6.50;;;;;;;;;;5024562;28;20029;-70
2022/04/12 00:12:42;;;;;;;10.27;6.53;;;;;;;;;;5023187;28;20410;-70
2022/04/12 00:15:09;;;;;;;9.82;6.45;;;;;;;;;;5024123;28;20158;-70
2022/04/12 00:20:21;;;;;;;9.43;6.03;;;;;;;;;;5023930;28;20464;-70
2022/04/12 00:22:47;;;;;;;10.65;6.60;;;;;;;;;;5024011;28;20087;-70
2022/04/12 00:25:13;;;;;;;9.25;6.35;;;;;;;;;;5023225;28;20536;-70
2022/04/12 00:27:40;;;;;;;10.98;6.32;;;;;;;;;;5023423;28;20035;-69
2022/04/12 00:30:08;;;;;;;10.63;5.80;;;;;;;;;;5022867;28;20033;-70
2022/04/12 00:32:34;;;;;;;7.78;5.65;;;;;;;;;;5023870;28;20065;-70
2022/04/12 00:35:00;;;;;;;8.10;5.75;;;;;;;;;;5022548;28;20072;-70
2022/04/12 00:37:26;;;;;;;11.00;5.90;;;;;;;;;;5022642;28;20064;-70
2022/04/12 00:39:52;;;;;;;10.77;6.32;;;;;;;;;;5022948;28;20041;-70
2022/04/12 00:42:17;;;;;;;10.27;6.60;;;;;;;;;;5022341;28;20037;-70
2022/04/12 00:44:43;;;;;;;9.57;6.20;;;;;;;;;;5023141;28;20037;-70
2022/04/12 00:47:08;;;;;;;9.70;6.50;;;;;;;;;;5021578;28;20025;-69
2022/04/12 00:49:34;;;;;;;9.02;5.95;;;;;;;;;;5023092;28;20742;-70
2022/04/12 00:51:59;;;;;;;10.48;6.50;;;;;;;;;;5022227;28;20041;-70
2022/04/12 00:54:25;;;;;;;8.77;6.15;;;;;;;;;;5015012;28;20562;-70
2022/04/12 00:56:52;;;;;;;10.75;6.20;;;;;;;;;;5021828;28;20037;-70
2022/04/12 00:59:18;;;;;;;8.93;6.07;;;;;;;;;;5024120;28;20029;-69
2022/04/12 01:01:43;;;;;;;11.10;6.55;;;;;;;;;;5023470;28;20044;-69
2022/04/12 01:04:09;;;;;;;7.53;5.68;;;;;;;;;;5017010;28;20029;-70
2022/04/12 01:06:38;;;;;;;8.63;5.97;;;;;;;;;;5022716;28;20475;-70
2022/04/12 01:09:05;;;;;;;10.05;6.30;;;;;;;;;;5021679;28;20051;-70
2022/04/12 01:11:34;;;;;;;9.93;6.10;;;;;;;;;;5023727;28;20038;-69
2022/04/12 01:14:00;;;;;;;12.43;6.80;;;;;;;;;;5023734;28;20033;-72
2022/04/12 01:16:26;;;;;;;12.10;6.00;;;;;;;;;;5021382;28;20040;-71
2022/04/12 01:18:51;;;;;;;11.02;6.60;;;;;;;;;;5020980;28;20496;-70
2022/04/12 01:21:17;;;;;;;8.73;6.13;;;;;;;;;;5023451;28;20107;-71
2022/04/12 01:24:01;;;;;;;10.77;6.43;;;;;;;;;;5023111;28;20619;-72
2022/04/12 01:26:27;;;;;;;11.63;6.15;;;;;;;;;;5023159;28;20025;-71
2022/04/12 01:28:52;;;;;;;11.45;6.85;;;;;;;;;;5022571;28;20091;-73
2022/04/12 01:31:18;;;;;;;10.98;7.15;;;;;;;;;;5020884;28;20044;-71
2022/04/12 01:33:43;;;;;;;10.82;6.70;;;;;;;;;;5022978;28;20051;-72
2022/04/12 01:36:09;;;;;;;8.77;6.40;;;;;;;;;;5023526;28;20112;-71
2022/04/12 01:38:34;;;;;;;10.00;6.03;;;;;;;;;;5022351;28;20425;-71
2022/04/12 01:40:59;;;;;;;10.27;6.13;;;;;;;;;;5021762;28;20041;-72
2022/04/12 01:43:25;;;;;;;8.23;6.20;;;;;;;;;;5022543;28;20037;-71
2022/04/12 01:45:50;;;;;;;9.18;6.60;;;;;;;;;;5022297;28;20063;-72
2022/04/12 01:48:16;;;;;;;11.57;6.18;;;;;;;;;;5022567;28;20034;-72
2022/04/12 01:50:41;;;;;;;11.88;6.72;;;;;;;;;;5023138;28;20067;-71
2022/04/12 01:53:07;;;;;;;12.52;6.93;;;;;;;;;;5019615;28;20087;-71
2022/04/12 01:55:32;;;;;;;11.43;7.32;;;;;;;;;;5022618;28;20151;-71
2022/04/12 01:57:58;;;;;;;13.50;6.53;;;;;;;;;;5021359;28;20124;-71
2022/04/12 02:00:23;;;;;;;11.65;6.53;;;;;;;;;;5022634;28;20148;-72
2022/04/12 02:02:49;;;;;;;8.52;6.75;;;;;;;;;;5019998;28;20053;-71
2022/04/12 02:05:15;;;;;;;10.95;7.35;;;;;;;;;;5022463;28;20103;-72
2022/04/12 02:07:43;;;;;;;10.30;7.10;;;;;;;;;;5021902;28;20037;-71
2022/04/12 02:10:10;;;;;;;11.85;7.38;;;;;;;;;;5022083;28;20049;-74
2022/04/12 02:12:35;;;;;;;12.57;7.85;;;;;;;;;;5020956;28;20037;-70
2022/04/12 02:15:02;;;;;;;10.13;6.97;;;;;;;;;;5020424;28;20041;-70
2022/04/12 02:17:28;;;;;;;10.00;7.75;;;;;;;;;;5021117;28;20029;-70
2022/04/12 02:19:54;;;;;;;9.43;7.25;;;;;;;;;;5022254;28;20044;-69
2022/04/12 02:22:19;;;;;;;12.10;7.22;;;;;;;;;;5021897;28;20029;-69
2022/04/12 02:24:45;;;;;;;9.75;7.28;;;;;;;;;;5020607;28;20745;-69
2022/04/12 02:27:10;;;;;;;12.57;7.22;;;;;;;;;;5019195;28;20516;-70
2022/04/12 02:29:35;;;;;;;10.80;7.47;;;;;;;;;;5022027;28;20033;-70
2022/04/12 02:32:01;;;;;;;10.68;7.38;;;;;;;;;;5020548;28;20528;-69
2022/04/12 02:34:26;;;;;;;13.15;7.63;;;;;;;;;;5022077;28;20040;-69
2022/04/12 02:36:52;;;;;;;10.35;7.03;;;;;;;;;;5019516;28;20048;-69
2022/04/12 02:39:17;;;;;;;10.77;7.47;;;;;;;;;;5020776;28;20043;-69
2022/04/12 02:41:43;;;;;;;10.77;7.30;;;;;;;;;;5020158;28;20063;-69
2022/04/12 02:44:08;;;;;;;11.00;6.97;;;;;;;;;;5020312;28;20485;-70
2022/04/12 02:46:33;;;;;;;11.27;7.78;;;;;;;;;;5020222;28;20567;-70
2022/04/12 02:48:59;;;;;;;12.45;7.90;;;;;;;;;;5019207;28;20045;-69
2022/04/12 02:51:24;;;;;;;10.82;8.07;;;;;;;;;;5021297;28;20108;-69
2022/04/12 02:53:50;;;;;;;12.75;7.30;;;;;;;;;;5021311;28;20417;-70
2022/04/12 02:56:15;;;;;;;9.98;7.30;;;;;;;;;;5021258;28;20148;-69
2022/04/12 02:58:41;;;;;;;12.88;7.60;;;;;;;;;;5019279;28;20383;-69
2022/04/12 03:01:06;;;;;;;21.27;11.57;;;;;;;;;;5021136;28;20055;-69
2022/04/12 03:03:32;;;;;;;14.70;9.05;;;;;;;;;;5021260;28;20115;-69
2022/04/12 03:05:57;;;;;;;13.15;7.30;;;;;;;;;;5016570;28;20037;-69
2022/04/12 03:08:22;;;;;;;10.38;7.63;;;;;;;;;;5019441;28;20087;-69
2022/04/12 03:10:48;;;;;;;9.80;7.53;;;;;;;;;;5020750;28;20037;-70
2022/04/12 03:13:13;;;;;;;12.07;7.88;;;;;;;;;;5021029;28;20394;-70
2022/04/12 03:15:39;;;;;;;15.23;7.72;;;;;;;;;;5017889;28;20044;-72
2022/04/12 03:18:05;;;;;;;13.15;8.48;;;;;;;;;;5019816;28;20076;-71
2022/04/12 03:20:30;;;;;;;12.70;8.52;;;;;;;;;;5019303;28;20048;-71
2022/04/12 03:22:56;;;;;;;11.07;7.70;;;;;;;;;;5020397;28;20034;-72
2022/04/12 03:25:22;;;;;;;13.07;7.70;;;;;;;;;;5021244;28;20210;-71
2022/04/12 03:27:48;;;;;;;10.07;7.18;;;;;;;;;;5019975;28;20033;-71
2022/04/12 03:30:13;;;;;;;9.82;6.25;;;;;;;;;;5019874;28;20037;-71
2022/04/12 03:32:39;;;;;;;9.82;6.75;;;;;;;;;;5020539;28;20513;-71
2022/04/12 03:35:04;;;;;;;10.57;7.05;;;;;;;;;;5020854;28;20045;-71
2022/04/12 03:37:30;;;;;;;11.70;7.05;;;;;;;;;;5019692;28;20041;-71
2022/04/12 03:39:55;;;;;;;12.25;7.00;;;;;;;;;;5019900;28;20041;-71
2022/04/12 03:42:21;;;;;;;13.10;7.57;;;;;;;;;;5019195;28;20025;-71
2022/04/12 03:44:47;;;;;;;12.65;7.07;;;;;;;;;;5023421;28;20069;-71
2022/04/12 03:47:12;;;;;;;16.08;8.45;;;;;;;;;;5023718;28;20041;-71
2022/04/12 03:49:38;;;;;;;16.08;8.35;;;;;;;;;;5025091;28;20099;-71
2022/04/12 03:52:04;;;;;;;13.65;7.47;;;;;;;;;;5025007;28;20049;-69
2022/04/12 03:54:29;;;;;;;10.50;7.70;;;;;;;;;;5023590;28;20061;-69
2022/04/12 03:56:55;;;;;;;12.05;7.75;;;;;;;;;;5023656;28;20037;-69
2022/04/12 03:59:21;;;;;;;9.52;7.25;;;;;;;;;;5024659;28;20037;-69
2022/04/12 04:01:46;;;;;;;11.13;7.72;;;;;;;;;;5024208;28;20383;-69
2022/04/12 04:04:12;;;;;;;10.18;7.47;;;;;;;;;;5023700;28;20040;-71
2022/04/12 04:06:38;;;;;;;10.90;7.68;;;;;;;;;;5024609;28;20071;-71
2022/04/12 04:09:03;;;;;;;12.48;8.10;;;;;;;;;;5023543;28;20116;-70
2022/04/12 04:11:29;;;;;;;11.90;8.77;;;;;;;;;;5024268;28;20517;-71
2022/04/12 04:13:55;;;;;;;11.70;8.70;;;;;;;;;;5024540;28;20637;-72
2022/04/12 04:16:20;;;;;;;11.45;7.20;;;;;;;;;;5022081;28;20038;-70
2022/04/12 04:18:46;;;;;;;11.20;8.82;;;;;;;;;;5023492;28;20044;-71
2022/04/12 04:21:11;;;;;;;11.88;8.35;;;;;;;;;;5024114;28;20048;-71
2022/04/12 04:23:37;;;;;;;11.20;8.82;;;;;;;;;;5024529;28;20108;-71
2022/04/12 04:26:02;;;;;;;13.13;9.02;;;;;;;;;;5022206;28;20457;-72
2022/04/12 04:28:30;;;;;;;14.00;8.77;;;;;;;;;;5023800;28;20033;-71
2022/04/12 04:30:56;;;;;;;15.05;9.20;;;;;;;;;;5023335;28;20041;-71
2022/04/12 04:33:21;;;;;;;17.30;9.55;;;;;;;;;;5023493;28;20485;-71
2022/04/12 04:35:48;;;;;;;13.65;9.15;;;;;;;;;;5023421;28;20061;-70
2022/04/12 04:38:14;;;;;;;12.45;8.48;;;;;;;;;;5022180;28;20033;-71
2022/04/12 04:40:40;;;;;;;11.77;8.70;;;;;;;;;;5021236;28;20120;-71
2022/04/12 04:43:06;;;;;;;12.45;8.23;;;;;;;;;;5017362;28;20033;-71
2022/04/12 04:45:31;;;;;;;12.23;8.23;;;;;;;;;;5021501;28;20798;-71
2022/04/12 04:47:58;;;;;;;14.85;7.43;;;;;;;;;;5003765;28;20036;-71
2022/04/12 04:50:26;;;;;;;9.77;8.02;;;;;;;;;;5023576;28;20088;-71
2022/04/12 04:52:52;;;;;;;10.15;7.68;;;;;;;;;;5023340;28;20037;-70
2022/04/12 04:55:18;;;;;;;12.25;8.00;;;;;;;;;;5021320;28;20044;-70
2022/04/12 04:57:45;;;;;;;12.93;8.48;;;;;;;;;;5022854;28;20037;-69
2022/04/12 05:00:15;;;;;;;10.70;7.65;;;;;;;;;;5020541;28;20490;-69
2022/04/12 05:02:45;;;;;;;12.93;7.68;;;;;;;;;;5023521;28;20442;-71
2022/04/12 05:05:11;;;;;;;10.77;7.80;;;;;;;;;;5023044;28;20065;-71
2022/04/12 05:07:41;;;;;;;12.07;7.60;;;;;;;;;;5022971;28;20204;-71
2022/04/12 05:10:07;;;;;;;9.65;6.75;;;;;;;;;;5022093;28;20624;-72
2022/04/12 05:12:33;;;;;;;11.65;8.07;;;;;;;;;;5023510;28;20040;-71
2022/04/12 05:14:58;;;;;;;9.80;7.50;;;;;;;;;;5022748;28;20041;-71
2022/04/12 05:17:28;;;;;;;9.65;7.82;;;;;;;;;;5021336;28;20040;-70
2022/04/12 05:19:56;;;;;;;10.45;7.20;;;;;;;;;;5023021;28;20040;-69
2022/04/12 05:22:22;;;;;;;7.03;5.93;;;;;;;;;;5021305;28;20033;-72
2022/04/12 05:24:49;;;;;;;8.73;6.15;;;;;;;;;;5019095;28;20056;-74
2022/04/12 05:27:15;;;;;;;8.82;5.63;;;;;;;;;;5020413;28;20034;-72
2022/04/12 05:29:41;;;;;;;7.32;6.05;;;;;;;;;;5020192;28;20147;-73
2022/04/12 05:32:08;;;;;;;10.30;6.25;;;;;;;;;;5019594;28;20037;-73
2022/04/12 05:34:33;;;;;;;11.45;6.63;;;;;;;;;;5022236;28;20037;-72
2022/04/12 05:36:58;;;;;;;12.90;6.88;;;;;;;;;;5022652;28;20103;-73
2022/04/12 05:39:24;;;;;;;8.48;6.10;;;;;;;;;;5019176;28;20025;-73
2022/04/12 05:41:49;;;;;;;11.95;7.03;;;;;;;;;;5021041;28;20460;-73
2022/04/12 05:44:15;;;;;;;7.40;6.25;;;;;;;;;;5022532;28;20029;-73
2022/04/12 05:46:40;;;;;;;7.20;5.97;;;;;;;;;;5022224;28;20524;-73
2022/04/12 05:49:05;;;;;;;10.63;5.35;;;;;;;;;;5022149;28;20045;-73
2022/04/12 05:51:31;;;;;;;9.52;5.22;;;;;;;;;;5022377;28;20041;-73
2022/04/12 05:53:56;;;;;;;10.93;6.35;;;;;;;;;;5021302;28;20042;-72
2022/04/12 05:56:22;;;;;;;8.75;6.40;;;;;;;;;;5022189;28;20033;-73
2022/04/12 05:58:47;;;;;;;13.20;5.72;;;;;;;;;;5020820;28;20041;-73
2022/04/12 06:01:13;;;;;;;8.35;5.65;;;;;;;;;;5022356;28;20131;-73
2022/04/12 06:03:38;;;;;;;9.85;5.75;;;;;;;;;;5021333;28;20037;-73
2022/04/12 06:06:04;;;;;;;10.48;5.65;;;;;;;;;;5020511;28;20037;-73
2022/04/12 06:08:29;;;;;;;7.93;6.07;;;;;;;;;;5022372;28;20090;-73
2022/04/12 06:10:54;;;;;;;14.52;6.47;;;;;;;;;;5021592;28;20033;-73
2022/04/12 06:13:20;;;;;;;9.43;5.60;;;;;;;;;;5022676;28;20265;-72
2022/04/12 06:15:45;;;;;;;8.75;5.57;;;;;;;;;;5014180;28;20064;-73
2022/04/12 06:18:11;;;;;;;12.07;5.43;;;;;;;;;;5020527;28;20494;-71
2022/04/12 06:20:37;;;;;;;9.55;4.85;;;;;;;;;;5019687;28;20992;-70
2022/04/12 06:23:03;;;;;;;6.07;4.57;;;;;;;;;;5021250;28;20068;-70
2022/04/12 06:25:29;;;;;;;7.72;4.82;;;;;;;;;;5019909;28;20764;-71
2022/04/12 06:27:54;;;;;;;5.50;4.57;;;;;;;;;;5020680;28;20037;-70
2022/04/12 06:30:22;;;;;;;8.68;5.05;;;;;;;;;;5018113;28;20037;-71
2022/04/12 06:32:48;;;;;;;5.88;4.55;;;;;;;;;;5019171;28;20041;-71
2022/04/12 06:35:14;;;;;;;6.22;4.53;;;;;;;;;;5022016;28;20044;-71
2022/04/12 06:37:41;;;;;;;5.18;3.13;;;;;;;;;;5019102;28;20485;-73
2022/04/12 06:40:08;;;;;;;7.05;4.07;;;;;;;;;;5021321;28;20061;-74
2022/04/12 06:42:34;;;;;;;5.57;4.22;;;;;;;;;;5021756;28;20041;-73
2022/04/12 06:45:00;;;;;;;6.80;4.88;;;;;;;;;;5020566;28;20486;-71
2022/04/12 06:47:25;;;;;;;5.97;4.35;;;;;;;;;;5018244;28;20160;-74
2022/04/12 06:49:51;;;;;;;6.53;4.03;;;;;;;;;;5019278;28;20049;-70
2022/04/12 06:52:19;;;;;;;6.53;4.72;;;;;;;;;;5020009;28;20118;-72
2022/04/12 06:54:45;;;;;;;8.68;4.78;;;;;;;;;;5021439;28;20493;-73
2022/04/12 06:57:10;;;;;;;6.43;4.45;;;;;;;;;;5019670;28;20212;-72
2022/04/12 06:59:36;;;;;;;6.15;4.35;;;;;;;;;;5018578;28;20041;-70
2022/04/12 07:02:02;;;;;;;6.03;4.15;;;;;;;;;;5020372;28;20037;-72
2022/04/12 07:04:28;;;;;;;6.68;3.47;;;;;;;;;;5021284;28;20689;-73
2022/04/12 07:06:56;;;;;;;4.47;3.33;;;;;;;;;;5020240;28;20158;-72
2022/04/12 07:09:27;;;;;;;4.88;4.00;;;;;;;;;;5018053;28;20103;-69
2022/04/12 07:11:53;;;;;;;6.72;3.53;;;;;;;;;;5020316;28;20068;-70
2022/04/12 07:14:18;;;;;;;4.13;3.47;;;;;;;;;;5021122;28;20029;-71
2022/04/12 07:16:44;;;;;;;5.85;3.50;;;;;;;;;;5018166;28;20033;-72
2022/04/12 07:19:09;;;;;;;8.18;3.80;;;;;;;;;;5019361;28;20033;-70
2022/04/12 07:21:35;;;;;;;9.00;4.50;;;;;;;;;;5018826;28;20437;-72
2022/04/12 07:24:03;;;;;;;4.30;3.42;;;;;;;;;;5019200;28;20429;-73
2022/04/12 07:26:28;;;;;;;3.80;3.00;;;;;;;;;;5019065;28;20033;-71
2022/04/12 07:28:54;;;;;;;9.77;3.63;;;;;;;;;;5019725;28;20482;-70
2022/04/12 07:31:19;;;;;;;5.75;3.00;;;;;;;;;;5016849;28;20030;-70
2022/04/12 07:33:45;;;;;;;5.25;3.30;;;;;;;;;;5020429;28;20034;-70
2022/04/12 07:36:11;;;;;;;10.32;3.50;;;;;;;;;;5022279;28;20036;-72
2022/04/12 07:38:36;;;;;;;4.53;4.00;;;;;;;;;;5019899;28;20037;-71
2022/04/12 07:41:02;;;;;;;5.43;3.60;;;;;;;;;;5020539;28;20115;-71
2022/04/12 07:43:27;;;;;;;6.28;3.60;;;;;;;;;;5018742;28;20080;-69
2022/04/12 07:45:53;;;;;;;4.18;3.08;;;;;;;;;;5018811;28;20084;-69
2022/04/12 07:48:18;;;;;;;4.13;3.28;;;;;;;;;;5019797;28;20037;-70
2022/04/12 07:50:44;;;;;;;5.60;3.38;;;;;;;;;;5020336;28;20037;-71
2022/04/12 07:53:09;;;;;;;4.50;3.88;;;;;;;;;;5019150;28;20103;-70
2022/04/12 07:55:34;;;;;;;6.28;4.30;;;;;;;;;;5020134;28;20041;-70
2022/04/12 07:58:00;;;;;;;7.82;3.55;;;;;;;;;;5018929;28;20048;-70
2022/04/12 08:00:25;;;;;;;6.13;4.10;;;;;;;;;;5019800;28;20041;-71
2022/04/12 08:02:51;;;;;;;3.97;3.55;;;;;;;;;;5018825;28;20041;-70
2022/04/12 08:05:16;;;;;;;6.30;3.42;;;;;;;;;;5019238;28;20069;-71
2022/04/12 08:07:47;;;;;;;4.28;3.35;;;;;;;;;;5019185;28;20041;-70
2022/04/12 08:10:19;;;;;;;4.50;3.47;;;;;;;;;;5017414;28;20478;-71
2022/04/12 08:12:46;;;;;;;3.33;2.88;;;;;;;;;;5019238;28;20755;-71
2022/04/12 08:15:13;;;;;;;3.78;3.25;;;;;;;;;;5018466;28;20048;-71
2022/04/12 08:17:39;;;;;;;4.35;2.63;;;;;;;;;;5017133;28;20037;-72
2022/04/12 08:20:06;;;;;;;3.65;2.30;;;;;;;;;;5018405;28;20033;-72
2022/04/12 08:22:32;;;;;;;7.90;2.47;;;;;;;;;;5018089;28;20120;-72
2022/04/12 08:24:58;;;;;;;5.03;2.38;;;;;;;;;;5016461;28;20083;-71
2022/04/12 08:27:25;;;;;;;3.35;2.13;;;;;;;;;;5015841;28;20030;-71
2022/04/12 08:29:50;;;;;;;4.20;2.10;;;;;;;;;;5021392;28;20041;-71
2022/04/12 08:32:16;;;;;;;4.25;3.20;;;;;;;;;;5023567;28;20031;-71
2022/04/12 08:34:42;;;;;;;5.85;3.33;;;;;;;;;;5022593;28;20042;-71
2022/04/12 08:37:07;;;;;;;5.03;2.90;;;;;;;;;;5020903;28;20040;-71
2022/04/12 08:39:33;;;;;;;2.97;2.65;;;;;;;;;;5022501;28;20071;-70
2022/04/12 08:42:01;;;;;;;5.55;3.03;;;;;;;;;;5022171;28;20026;-72
2022/04/12 08:44:27;;;;;;;5.60;2.70;;;;;;;;;;5021937;28;20029;-72
2022/04/12 08:46:55;;;;;;;2.85;2.42;;;;;;;;;;5021205;28;20030;-70
2022/04/12 08:49:23;;;;;;;6.75;2.30;;;;;;;;;;5020345;28;20520;-71
2022/04/12 08:51:48;;;;;;;2.20;2.00;;;;;;;;;;5021895;28;20033;-70
2022/04/12 08:54:16;;;;;;;2.70;2.20;;;;;;;;;;5022819;28;20914;-71
2022/04/12 08:56:43;;;;;;;5.88;2.53;;;;;;;;;;5021238;28;20048;-71
2022/04/12 08:59:08;;;;;;;2.97;2.38;;;;;;;;;;5018779;28;20067;-69
2022/04/12 09:01:34;;;;;;;2.10;2.00;;;;;;;;;;5020832;28;20449;-71
2022/04/12 09:04:00;;;;;;;2.63;2.42;;;;;;;;;;5020310;28;20084;-68
2022/04/12 09:06:26;;;;;;;3.67;2.15;;;;;;;;;;5021090;28;20025;-68
2022/04/12 09:08:51;;;;;;;5.55;2.40;;;;;;;;;;5020750;28;20045;-68
2022/04/12 09:11:17;;;;;;;2.15;1.95;;;;;;;;;;5019630;28;20397;-67
2022/04/12 09:13:59;;;;;;;2.50;1.92;;;;;;;;;;5024740;28;20142;-68
2022/04/12 09:16:25;;;;;;;3.58;2.33;;;;;;;;;;5018964;28;20069;-69
2022/04/12 09:18:51;;;;;;;7.72;2.25;;;;;;;;;;5021381;28;20065;-68
2022/04/12 09:21:17;;;;;;;3.63;2.30;;;;;;;;;;5021640;28;20496;-68
2022/04/12 09:23:48;;;;;;;2.65;2.25;;;;;;;;;;5022830;28;20037;-69
2022/04/12 09:26:22;;;;;;;2.88;2.60;;;;;;;;;;5022163;28;20034;-68
2022/04/12 09:28:47;;;;;;;4.00;2.58;;;;;;;;;;5021515;28;20504;-68
2022/04/12 09:31:18;;;;;;;4.47;2.50;;;;;;;;;;5022168;28;20061;-70
2022/04/12 09:33:45;;;;;;;3.72;2.25;;;;;;;;;;5021311;28;20398;-69
2022/04/12 09:36:11;;;;;;;3.83;2.65;;;;;;;;;;5022563;28;20076;-68
2022/04/12 09:38:40;;;;;;;3.03;2.40;;;;;;;;;;5021819;28;20151;-69
2022/04/12 09:41:31;;;;;;;3.15;2.40;;;;;;;;;;5022516;28;20025;-69
2022/04/12 09:44:08;;;;;;;3.70;2.67;;;;;;;;;;5018944;28;20207;-69
2022/04/12 09:46:39;;;;;;;3.05;2.47;;;;;;;;;;5021631;28;20132;-68
2022/04/12 09:49:08;;;;;;;2.63;2.42;;;;;;;;;;5021632;28;20123;-68
2022/04/12 09:51:36;;;;;;;3.05;2.42;;;;;;;;;;5022546;28;20099;-68
2022/04/12 09:54:06;;;;;;;4.60;2.08;;;;;;;;;;5022488;28;21142;-68
2022/04/12 09:56:33;;;;;;;2.42;2.22;;;;;;;;;;5021273;28;20065;-68
2022/04/12 09:59:03;;;;;;;5.05;2.03;;;;;;;;;;5021058;28;20037;-68
2022/04/12 10:01:31;;;;;;;5.90;2.60;;;;;;;;;;5022344;28;20862;-68
2022/04/12 10:03:58;;;;;;;3.53;2.65;;;;;;;;;;5022025;28;20037;-68
2022/04/12 10:06:26;;;;;;;4.20;2.67;;;;;;;;;;5020749;28;20029;-69
2022/04/12 10:09:11;;;;;;;5.70;2.40;;;;;;;;;;5021205;28;20041;-68
2022/04/12 10:11:38;;;;;;;15.02;12.15;;;;;;;;;;5021994;28;20033;-68
2022/04/12 10:14:04;;;;;;;3.17;2.40;;;;;;;;;;5026299;28;20211;-68
2022/04/12 10:16:30;;;;;;;5.05;2.70;;;;;;;;;;5020992;28;20029;-70
2022/04/12 10:18:59;;;;;;;4.00;2.30;;;;;;;;;;5022008;28;20033;-70
2022/04/12 10:21:26;;;;;;;3.88;2.75;;;;;;;;;;5023216;28;20034;-70
2022/04/12 10:23:55;;;;;;;10.80;2.78;;;;;;;;;;5023078;28;20049;-70
2022/04/12 10:26:23;;;;;;;3.67;2.63;;;;;;;;;;5023670;28;20108;-70
2022/04/12 10:28:57;;;;;;;5.60;2.60;;;;;;;;;;5021609;28;20037;-70
2022/04/12 10:31:25;;;;;;;5.03;2.95;;;;;;;;;;5024342;28;20044;-70
2022/04/12 10:34:11;;;;;;;4.78;2.70;;;;;;;;;;5025260;28;20050;-70
2022/04/12 10:37:05;;;;;;;4.53;2.90;;;;;;;;;;5029201;28;20045;-70
2022/04/12 10:40:11;;;;;;;3.65;2.50;;;;;;;;;;5017672;28;20087;-70
2022/04/12 10:42:37;;;;;;;6.18;2.67;;;;;;;;;;5018869;28;20648;-70
2022/04/12 10:45:04;;;;;;;3.72;2.45;;;;;;;;;;5018905;28;20037;-70
2022/04/12 10:47:36;;;;;;;3.63;2.25;;;;;;;;;;5019324;28;20040;-71
2022/04/12 10:50:08;;;;;;;3.92;2.28;;;;;;;;;;5017680;28;20053;-71
2022/04/12 10:52:42;;;;;;;3.00;2.30;;;;;;;;;;5019863;28;20037;-70
2022/04/12 10:55:13;;;;;;;6.65;2.20;;;;;;;;;;5019338;28;20513;-70
2022/04/12 10:57:38;;;;;;;5.88;2.13;;;;;;;;;;5019194;28;20107;-71
2022/04/12 11:00:08;;;;;;;4.32;1.80;;;;;;;;;;5020962;28;20042;-71
2022/04/12 11:02:41;;;;;;;4.32;2.05;;;;;;;;;;5021338;28;20129;-71
2022/04/12 11:05:28;;;;;;;4.15;1.60;;;;;;;;;;5020822;28;20466;-72
2022/04/12 11:07:54;;;;;;;2.15;1.95;;;;;;;;;;5020182;28;20120;-72
2022/04/12 11:10:21;;;;;;;2.55;1.70;;;;;;;;;;5020305;28;20458;-71
2022/04/12 11:12:48;;;;;;;2.05;1.80;;;;;;;;;;5018517;28;20037;-69
2022/04/12 11:15:21;;;;;;;6.10;1.77;;;;;;;;;;5020203;28;20037;-69
2022/04/12 11:17:47;;;;;;;1.98;1.48;;;;;;;;;;5020108;28;20064;-70
2022/04/12 11:20:22;;;;;;;1.40;1.30;;;;;;;;;;5023269;28;20061;-70
2022/04/12 11:22:59;;;;;;;2.38;1.40;;;;;;;;;;5024191;28;20037;-69
2022/04/12 11:25:26;;;;;;;4.30;1.60;;;;;;;;;;5019804;28;20021;-69
2022/04/12 11:27:59;;;;;;;1.98;1.38;;;;;;;;;;5019910;28;20040;-69
2022/04/12 11:30:25;;;;;;;5.20;1.10;;;;;;;;;;5020340;28;20388;-70
2022/04/12 11:32:55;;;;;;;2.35;1.40;;;;;;;;;;5020517;28;20076;-70
2022/04/12 11:35:22;;;;;;;3.78;1.35;;;;;;;;;;5018678;28;20159;-70
2022/04/12 11:37:48;;;;;;;3.40;1.35;;;;;;;;;;5019847;28;20044;-72
2022/04/12 11:40:14;;;;;;;1.55;1.25;;;;;;;;;;5016836;28;20041;-70
2022/04/12 11:42:39;;;;;;;1.10;1.00;;;;;;;;;;5020197;28;20034;-71
2022/04/12 11:45:05;;;;;;;3.67;1.50;;;;;;;;;;5018800;28;20069;-71
2022/04/12 11:47:38;;;;;;;2.28;1.20;;;;;;;;;;5020069;28;20053;-70
2022/04/12 11:50:14;;;;;;;2.38;1.40;;;;;;;;;;5018568;28;20052;-70
2022/04/12 11:52:40;;;;;;;1.90;1.10;;;;;;;;;;5019872;28;20091;-72
2022/04/12 11:55:06;;;;;;;3.30;1.40;;;;;;;;;;5019772;28;20038;-69
2022/04/12 11:57:32;;;;;;;3.10;1.42;;;;;;;;;;5019707;28;20037;-70
2022/04/12 11:59:59;;;;;;;3.00;1.45;;;;;;;;;;5019037;28;20072;-71
2022/04/12 12:02:33;;;;;;;5.63;1.60;;;;;;;;;;5020407;28;20040;-71
2022/04/12 12:05:04;;;;;;;1.88;1.38;;;;;;;;;;5022066;28;20033;-70
2022/04/12 12:07:31;;;;;;;5.70;1.55;;;;;;;;;;5022721;28;20036;-71
2022/04/12 12:10:03;;;;;;;2.85;1.63;;;;;;;;;;5023279;28;20033;-70
2022/04/12 12:12:33;;;;;;;5.10;1.80;;;;;;;;;;5024492;28;20025;-70
2022/04/12 12:15:22;;;;;;;2.63;2.20;;;;;;;;;;5023583;28;20037;-69
2022/04/12 12:17:52;;;;;;;1.90;1.80;;;;;;;;;;5021292;28;20060;-69
2022/04/12 12:20:19;;;;;;;2.80;2.20;;;;;;;;;;5023772;28;20025;-69
2022/04/12 12:22:47;;;;;;;4.75;2.10;;;;;;;;;;5022894;28;20037;-69
2022/04/12 12:25:21;;;;;;;4.22;2.70;;;;;;;;;;5023838;28;21150;-70
2022/04/12 12:27:51;;;;;;;4.70;2.20;;;;;;;;;;5021652;28;20041;-69
2022/04/12 12:30:24;;;;;;;3.33;2.55;;;;;;;;;;5021407;28;20037;-70
2022/04/12 12:32:54;;;;;;;5.10;2.38;;;;;;;;;;5022781;28;20466;-69
2022/04/12 12:35:23;;;;;;;3.10;2.50;;;;;;;;;;5023942;28;20033;-70
2022/04/12 12:37:49;;;;;;;6.00;2.90;;;;;;;;;;5023559;28;20057;-69
2022/04/12 12:40:24;;;;;;;3.03;2.40;;;;;;;;;;5020472;28;20450;-70
2022/04/12 12:42:52;;;;;;;3.97;2.78;;;;;;;;;;5021888;28;20037;-74
2022/04/12 12:45:22;;;;;;;5.13;2.65;;;;;;;;;;5021413;28;20083;-70
2022/04/12 12:47:54;;;;;;;4.33;2.57;;;;;;;;;;5029268;28;20555;-70
2022/04/12 12:50:21;;;;;;;3.95;2.67;;;;;;;;;;5020699;28;21001;-70
2022/04/12 12:52:47;;;;;;;4.07;2.20;;;;;;;;;;5022259;28;20397;-74
2022/04/12 12:55:20;;;;;;;8.32;3.03;;;;;;;;;;5020502;28;20041;-73
2022/04/12 12:57:53;;;;;;;4.18;2.03;;;;;;;;;;5020396;28;20029;-73
2022/04/12 13:00:20;;;;;;;9.10;2.45;;;;;;;;;;5021240;28;20196;-71
2022/04/12 13:02:46;;;;;;;4.45;2.28;;;;;;;;;;5018855;28;20055;-71
2022/04/12 13:05:17;;;;;;;7.10;2.65;;;;;;;;;;5020381;28;20450;-71
2022/04/12 13:07:43;;;;;;;7.22;2.42;;;;;;;;;;5020399;28;20533;-71
2022/04/12 13:10:14;;;;;;;5.50;2.42;;;;;;;;;;5021369;28;20140;-71
2022/04/12 13:12:41;;;;;;;2.93;2.00;;;;;;;;;;5019954;28;20090;-71
2022/04/12 13:15:08;;;;;;;7.47;2.10;;;;;;;;;;5020474;28;20965;-71
2022/04/12 13:17:34;;;;;;;4.38;1.98;;;;;;;;;;5023695;28;20088;-71
2022/04/12 13:20:00;;;;;;;2.75;2.00;;;;;;;;;;5022851;28;20049;-71
2022/04/12 13:22:26;;;;;;;3.10;1.90;;;;;;;;;;5023676;28;20029;-72
2022/04/12 13:24:52;;;;;;;3.38;2.10;;;;;;;;;;5020491;28;20037;-71
2022/04/12 13:27:18;;;;;;;3.63;2.10;;;;;;;;;;5025552;28;20036;-72
2022/04/12 13:29:43;;;;;;;4.80;2.05;;;;;;;;;;5026364;28;20041;-72
2022/04/12 13:32:09;;;;;;;3.65;1.92;;;;;;;;;;5023093;28;20044;-71
2022/04/12 13:34:35;;;;;;;3.72;2.35;;;;;;;;;;5021948;28;20124;-71
2022/04/12 13:37:00;;;;;;;3.08;2.15;;;;;;;;;;5021961;28;20355;-71
2022/04/12 13:39:26;;;;;;;11.23;2.10;;;;;;;;;;5022195;28;20471;-71
2022/04/12 13:41:51;;;;;;;3.33;2.20;;;;;;;;;;5022528;28;20144;-71
2022/04/12 13:44:17;;;;;;;5.63;1.90;;;;;;;;;;5020425;28;20096;-72
2022/04/12 13:46:43;;;;;;;5.82;2.25;;;;;;;;;;5017428;28;20390;-70
2022/04/12 13:49:08;;;;;;;3.42;2.08;;;;;;;;;;5017682;28;20037;-73
2022/04/12 13:51:34;;;;;;;4.22;2.45;;;;;;;;;;5019144;28;20033;-72
2022/04/12 13:53:59;;;;;;;4.80;2.55;;;;;;;;;;5020332;28;20037;-72
2022/04/12 13:56:25;;;;;;;5.75;2.42;;;;;;;;;;5017918;28;20041;-70
2022/04/12 13:58:51;;;;;;;6.32;2.05;;;;;;;;;;5019745;28;20556;-72
2022/04/12 14:01:16;;;;;;;2.17;1.85;;;;;;;;;;5019404;28;20037;-71
2022/04/12 14:03:42;;;;;;;4.88;1.90;;;;;;;;;;5022806;28;20049;-71
2022/04/12 14:06:07;;;;;;;3.13;2.20;;;;;;;;;;5021109;28;20033;-70
2022/04/12 14:08:35;;;;;;;2.53;1.88;;;;;;;;;;5020014;28;20029;-70
2022/04/12 14:11:01;;;;;;;2.45;1.88;;;;;;;;;;5020956;28;20041;-71
2022/04/12 14:13:27;;;;;;;2.75;2.20;;;;;;;;;;5022272;28;20410;-71
2022/04/12 14:15:53;;;;;;;3.67;2.22;;;;;;;;;;5020746;28;20125;-71
2022/04/12 14:18:19;;;;;;;5.13;1.70;;;;;;;;;;5018618;28;20029;-70
2022/04/12 14:20:45;;;;;;;4.15;2.00;;;;;;;;;;5021359;28;20665;-71
2022/04/12 14:23:11;;;;;;;6.35;2.42;;;;;;;;;;5021878;28;20041;-70
2022/04/12 14:25:38;;;;;;;1.95;1.70;;;;;;;;;;5021267;28;20080;-70
2022/04/12 14:28:03;;;;;;;3.55;2.35;;;;;;;;;;5018249;28;20656;-70
2022/04/12 14:30:29;;;;;;;5.13;2.20;;;;;;;;;;5019231;28;20037;-71
2022/04/12 14:32:54;;;;;;;4.07;2.05;;;;;;;;;;5020720;28;20037;-71
2022/04/12 14:35:20;;;;;;;2.95;2.22;;;;;;;;;;5019888;28;20026;-72
2022/04/12 14:37:46;;;;;;;3.85;2.30;;;;;;;;;;5021167;28;20026;-72
2022/04/12 14:40:12;;;;;;;4.28;2.30;;;;;;;;;;5019193;28;20037;-72